createdAt,value
2019-03-25T00:01:02.814Z,43.55
2019-03-25T00:03:32.656Z,43.70
2019-03-25T00:06:02.377Z,43.48
2019-03-25T00:08:33.278Z,44.80
2019-03-25T00:11:04.133Z,41.92
2019-03-25T00:13:35.053Z,44.05
2019-03-25T00:16:05.910Z,42.33
2019-03-25T00:18:36.671Z,43.33
2019-03-25T00:21:07.499Z,43.05
2019-03-25T00:23:38.314Z,42.75
2019-03-25T00:26:09.186Z,41.28
2019-03-25T00:28:40.016Z,42.27
2019-03-25T00:31:10.803Z,42.08
2019-03-25T00:33:41.629Z,42.10
2019-03-25T00:36:14.480Z,40.55
2019-03-25T00:38:45.278Z,41.55
2019-03-25T00:41:16.099Z,39.83
2019-03-25T00:43:47.054Z,41.77
2019-03-25T00:46:18.086Z,41.42
2019-03-25T00:48:49.129Z,41.80
2019-03-25T00:51:20.005Z,40.17
2019-03-25T00:53:50.823Z,40.83
2019-03-25T00:56:21.725Z,40.52
2019-03-25T00:58:52.589Z,39.35
2019-03-25T01:01:23.758Z,39.58
2019-03-25T01:03:54.626Z,38.30
2019-03-25T01:06:25.458Z,38.60
2019-03-25T01:08:56.327Z,38.48
2019-03-25T01:11:28.237Z,39.70
2019-03-25T01:13:59.137Z,38.63
2019-03-25T01:16:30.043Z,39.65
2019-03-25T01:19:00.998Z,38.17
2019-03-25T01:21:31.815Z,37.80
2019-03-25T01:24:02.620Z,36.63
2019-03-25T01:26:34.384Z,37.70
2019-03-25T01:29:05.228Z,38.53
2019-03-25T01:31:36.052Z,36.83
2019-03-25T01:34:06.861Z,37.65
2019-03-25T01:36:37.650Z,36.53
2019-03-25T01:39:08.540Z,36.40
2019-03-25T01:41:39.364Z,36.13
2019-03-25T01:44:10.174Z,36.50
2019-03-25T01:46:40.961Z,35.52
2019-03-25T01:49:11.871Z,35.55
2019-03-25T01:51:42.646Z,33.80
2019-03-25T01:54:13.449Z,36.25
2019-03-25T01:56:44.382Z,36.15
2019-03-25T01:59:15.246Z,34.45
2019-03-25T02:01:46.093Z,34.75
2019-03-25T02:04:16.932Z,35.00
2019-03-25T02:06:47.688Z,33.75
2019-03-25T02:09:18.495Z,33.05
2019-03-25T02:11:49.415Z,35.13
2019-03-25T02:14:20.319Z,34.08
2019-03-25T02:16:51.137Z,33.95
2019-03-25T02:19:21.964Z,33.75
2019-03-25T02:21:52.909Z,31.90
2019-03-25T02:24:24.744Z,31.23
2019-03-25T02:26:55.548Z,31.93
2019-03-25T02:29:26.359Z,30.95
2019-03-25T02:31:57.881Z,31.20
2019-03-25T02:34:28.666Z,31.57
2019-03-25T02:36:59.663Z,31.80
2019-03-25T02:39:30.469Z,31.70
2019-03-25T02:42:01.355Z,31.00
2019-03-25T02:44:32.285Z,30.55
2019-03-25T02:47:04.140Z,29.82
2019-03-25T02:49:36.049Z,29.70
2019-03-25T02:52:06.835Z,31.02
2019-03-25T02:54:37.637Z,29.95
2019-03-25T02:57:08.384Z,29.80
2019-03-25T02:59:39.198Z,28.90
2019-03-25T03:02:10.074Z,29.50
2019-03-25T03:04:40.932Z,28.27
2019-03-25T03:07:11.875Z,28.62
2019-03-25T03:09:42.722Z,28.80
2019-03-25T03:12:13.739Z,28.32
2019-03-25T03:14:44.601Z,27.77
2019-03-25T03:17:16.546Z,28.60
2019-03-25T03:19:47.411Z,28.62
2019-03-25T03:22:18.244Z,28.02
2019-03-25T03:24:49.016Z,26.75
2019-03-25T03:27:19.870Z,28.12
2019-03-25T03:29:50.770Z,27.27
2019-03-25T03:32:21.653Z,26.23
2019-03-25T03:34:52.582Z,27.30
2019-03-25T03:37:24.426Z,27.85
2019-03-25T03:39:55.241Z,26.62
2019-03-25T03:42:26.089Z,27.65
2019-03-25T03:44:56.873Z,27.35
2019-03-25T03:47:27.733Z,26.93
2019-03-25T03:49:58.544Z,26.05
2019-03-25T03:52:29.341Z,29.02
2019-03-25T03:55:00.320Z,39.63
2019-03-25T03:57:31.396Z,37.67
2019-03-25T04:00:02.293Z,44.08
2019-03-25T04:02:33.372Z,54.42
2019-03-25T04:05:04.223Z,48.00
2019-03-25T04:07:35.101Z,51.20
2019-03-25T04:10:06.231Z,52.58
2019-03-25T04:12:37.012Z,54.35
2019-03-25T04:15:07.879Z,52.65
2019-03-25T04:17:38.645Z,48.38
2019-03-25T04:20:09.608Z,47.95
2019-03-25T04:22:40.366Z,47.75
2019-03-25T04:25:11.202Z,46.77
2019-03-25T04:27:42.014Z,47.40
2019-03-25T04:30:12.816Z,45.35
2019-03-25T04:32:44.623Z,44.42
2019-03-25T04:35:15.465Z,43.98
2019-03-25T04:37:46.289Z,41.42
2019-03-25T04:40:17.161Z,42.48
2019-03-25T04:42:47.948Z,43.75
2019-03-25T04:45:18.775Z,43.90
2019-03-25T04:47:49.613Z,41.70
2019-03-25T04:50:20.419Z,39.80
2019-03-25T04:52:51.249Z,40.92
2019-03-25T04:55:22.127Z,40.65
2019-03-25T04:57:53.046Z,37.90
2019-03-25T05:00:35.033Z,40.50
2019-03-25T05:03:05.847Z,40.23
2019-03-25T05:05:36.857Z,38.30
2019-03-25T05:08:07.688Z,39.05
2019-03-25T05:10:38.538Z,39.35
2019-03-25T05:13:09.344Z,38.92
2019-03-25T05:15:40.167Z,37.48
2019-03-25T05:18:11.005Z,38.58
2019-03-25T05:20:41.833Z,38.05
2019-03-25T05:23:12.604Z,35.83
2019-03-25T05:25:43.427Z,38.05
2019-03-25T05:28:14.233Z,36.77
2019-03-25T05:30:45.094Z,36.20
2019-03-25T05:33:16.427Z,36.33
2019-03-25T05:35:47.277Z,35.35
2019-03-25T05:38:18.081Z,35.25
2019-03-25T05:40:49.333Z,36.35
2019-03-25T05:43:21.283Z,34.10
2019-03-25T05:45:52.309Z,34.55
2019-03-25T05:48:24.151Z,33.35
2019-03-25T05:50:54.975Z,35.40
2019-03-25T05:53:25.835Z,34.08
2019-03-25T05:55:56.647Z,33.95
2019-03-25T05:58:27.498Z,32.90
2019-03-25T06:00:58.295Z,32.40
2019-03-25T06:03:29.127Z,33.08
2019-03-25T06:06:00.324Z,33.13
2019-03-25T06:08:33.403Z,31.97
2019-03-25T06:11:04.281Z,32.73
2019-03-25T06:13:35.130Z,32.48
2019-03-25T06:16:05.917Z,33.65
2019-03-25T06:18:36.761Z,31.75
2019-03-25T06:21:07.541Z,30.40
2019-03-25T06:23:38.606Z,32.23
2019-03-25T06:26:09.452Z,30.70
2019-03-25T06:28:40.342Z,30.17
2019-03-25T06:31:11.127Z,30.85
2019-03-25T06:33:41.946Z,29.50
2019-03-25T06:36:12.867Z,29.75
2019-03-25T06:38:43.629Z,30.60
2019-03-25T06:41:14.486Z,29.75
2019-03-25T06:43:45.305Z,30.12
2019-03-25T06:46:16.199Z,27.58
2019-03-25T06:48:46.998Z,28.35
2019-03-25T06:51:17.898Z,27.07
2019-03-25T06:53:53.604Z,28.02
2019-03-25T06:56:26.523Z,27.75
2019-03-25T06:58:57.410Z,12.88
2019-03-25T07:01:28.386Z,12.28
2019-03-25T07:03:59.480Z,14.18
2019-03-25T07:06:30.692Z,13.53
2019-03-25T07:09:01.746Z,11.45
2019-03-25T07:11:33.938Z,9.65
2019-03-25T07:14:04.987Z,9.90
2019-03-25T07:16:36.154Z,9.85
2019-03-25T07:19:07.218Z,13.83
2019-03-25T07:21:38.294Z,12.28
2019-03-25T07:24:09.413Z,11.28
2019-03-25T07:26:40.598Z,9.48
2019-03-25T07:29:11.635Z,10.10
2019-03-25T07:31:42.614Z,9.88
2019-03-25T07:34:13.654Z,9.58
2019-03-25T07:36:44.641Z,9.03
2019-03-25T07:39:15.670Z,9.68
2019-03-25T07:41:46.674Z,9.38
2019-03-25T07:44:17.669Z,16.02
2019-03-25T07:46:48.647Z,22.93
2019-03-25T07:49:19.682Z,17.55
2019-03-25T07:51:50.646Z,14.93
2019-03-25T07:54:21.827Z,13.43
2019-03-25T07:56:52.946Z,13.80
2019-03-25T07:59:24.037Z,14.93
2019-03-25T08:01:55.099Z,16.60
2019-03-25T08:04:26.216Z,18.80
2019-03-25T08:06:57.386Z,20.92
2019-03-25T08:09:28.458Z,21.20
2019-03-25T08:11:59.561Z,21.62
2019-03-25T08:14:30.631Z,21.00
2019-03-25T08:17:02.159Z,21.50
2019-03-25T08:19:34.287Z,23.07
2019-03-25T08:22:06.795Z,21.95
2019-03-25T08:24:37.831Z,21.23
2019-03-25T08:27:08.938Z,21.52
2019-03-25T08:29:39.997Z,20.17
2019-03-25T08:32:08.871Z,21.02
2019-03-25T08:34:37.788Z,29.80
2019-03-25T08:37:08.888Z,30.35
2019-03-25T08:39:40.000Z,28.35
2019-03-25T08:42:11.175Z,27.42
2019-03-25T08:44:42.551Z,25.40
2019-03-25T08:47:13.692Z,24.80
2019-03-25T08:49:45.785Z,25.20
2019-03-25T08:52:16.884Z,24.92
2019-03-25T08:54:47.916Z,24.10
2019-03-25T08:57:19.078Z,24.65
2019-03-25T08:59:50.103Z,24.60
2019-03-25T09:02:21.186Z,23.60
2019-03-25T09:04:52.239Z,23.73
2019-03-25T09:07:23.276Z,23.50
2019-03-25T09:09:54.326Z,31.07
2019-03-25T09:12:25.328Z,31.12
2019-03-25T09:14:57.155Z,28.52
2019-03-25T09:17:28.163Z,26.68
2019-03-25T09:19:59.252Z,26.27
2019-03-25T09:22:30.373Z,25.52
2019-03-25T09:25:01.769Z,25.10
2019-03-25T09:27:32.895Z,26.10
2019-03-25T09:30:04.502Z,25.20
2019-03-25T09:32:35.878Z,25.05
2019-03-25T09:35:07.479Z,24.15
2019-03-25T09:37:38.918Z,25.68
2019-03-25T09:40:10.506Z,27.40
2019-03-25T09:42:41.511Z,25.60
2019-03-25T09:45:12.637Z,25.60
2019-03-25T09:47:43.697Z,28.02
2019-03-25T09:50:14.806Z,29.20
2019-03-25T09:52:45.904Z,30.37
2019-03-25T09:55:17.017Z,30.90
2019-03-25T09:57:48.037Z,29.10
2019-03-25T10:00:22.881Z,27.35
2019-03-25T10:02:53.960Z,25.95
2019-03-25T10:05:25.371Z,26.17
2019-03-25T10:07:56.465Z,25.62
2019-03-25T10:10:27.567Z,24.18
2019-03-25T10:12:58.800Z,23.73
2019-03-25T10:15:29.967Z,23.18
2019-03-25T10:18:01.068Z,22.58
2019-03-25T10:20:34.513Z,22.75
2019-03-25T10:23:05.591Z,23.10
2019-03-25T10:25:36.664Z,21.50
2019-03-25T10:28:08.923Z,21.37
2019-03-25T10:30:39.957Z,21.90
2019-03-25T10:33:12.152Z,22.07
2019-03-25T10:35:43.231Z,21.37
2019-03-25T10:38:19.573Z,21.80
2019-03-25T10:40:47.153Z,21.40
2019-03-25T10:43:18.324Z,21.23
2019-03-25T10:45:50.232Z,21.15
2019-03-25T10:48:21.710Z,22.67
2019-03-25T10:50:52.763Z,38.70
2019-03-25T10:53:24.219Z,30.00
2019-03-25T10:55:55.320Z,29.05
2019-03-25T10:58:26.495Z,30.43
2019-03-25T11:00:57.609Z,28.92
2019-03-25T11:03:28.736Z,26.52
2019-03-25T11:05:59.777Z,26.60
2019-03-25T11:08:30.868Z,26.87
2019-03-25T11:11:01.910Z,27.13
2019-03-25T11:13:32.943Z,27.20
2019-03-25T11:16:04.401Z,25.43
2019-03-25T11:18:35.472Z,24.75
2019-03-25T11:21:06.582Z,24.43
2019-03-25T11:23:37.660Z,24.12
2019-03-25T11:26:08.772Z,23.55
2019-03-25T11:28:39.848Z,23.75
2019-03-25T11:31:11.195Z,24.90
2019-03-25T11:33:42.294Z,31.27
2019-03-25T11:36:13.448Z,41.28
2019-03-25T11:38:44.653Z,42.83
2019-03-25T11:41:16.301Z,38.45
2019-03-25T11:43:47.355Z,32.80
2019-03-25T11:46:18.502Z,31.42
2019-03-25T11:48:49.768Z,29.90
2019-03-25T11:51:20.896Z,30.37
2019-03-25T11:53:51.989Z,28.57
2019-03-25T11:56:24.148Z,28.25
2019-03-25T11:58:55.320Z,27.42
2019-03-25T12:01:26.363Z,26.05
2019-03-25T12:03:57.417Z,24.02
2019-03-25T12:06:28.504Z,25.62
2019-03-25T12:08:59.530Z,25.10
2019-03-25T12:11:30.638Z,24.30
2019-03-25T12:14:01.669Z,23.73
2019-03-25T12:16:32.823Z,23.80
2019-03-25T12:19:04.445Z,22.48
2019-03-25T12:21:35.456Z,22.77
2019-03-25T12:24:06.530Z,21.77
2019-03-25T12:26:37.615Z,21.05
2019-03-25T12:29:08.682Z,21.23
2019-03-25T12:31:40.769Z,19.32
2019-03-25T12:34:11.929Z,19.00
2019-03-25T12:36:42.900Z,19.50
2019-03-25T12:39:14.000Z,18.73
2019-03-25T12:41:45.050Z,20.57
2019-03-25T12:44:16.200Z,18.57
2019-03-25T12:46:47.334Z,18.87
2019-03-25T12:49:18.363Z,18.27
2019-03-25T12:51:49.532Z,18.15
2019-03-25T12:54:20.644Z,17.00
2019-03-25T12:56:51.694Z,17.25
2019-03-25T12:59:22.742Z,17.60
2019-03-25T13:01:53.890Z,18.27
2019-03-25T13:04:24.950Z,19.42
2019-03-25T13:06:55.980Z,19.52
2019-03-25T13:09:27.097Z,20.15
2019-03-25T13:11:58.543Z,19.23
2019-03-25T13:14:30.167Z,20.43
2019-03-25T13:17:04.434Z,20.23
2019-03-25T13:19:36.051Z,19.65
2019-03-25T13:22:07.193Z,19.40
2019-03-25T13:24:38.254Z,20.37
2019-03-25T13:27:09.491Z,19.15
2019-03-25T13:29:51.771Z,18.62
2019-03-25T13:32:13.257Z,29.45
2019-03-25T13:34:44.331Z,32.83
2019-03-25T13:37:16.522Z,32.85
2019-03-25T13:39:47.580Z,28.20
2019-03-25T13:42:18.778Z,24.27
2019-03-25T13:44:49.883Z,22.37
2019-03-25T13:47:20.973Z,22.82
2019-03-25T13:49:52.013Z,22.95
2019-03-25T13:52:23.103Z,21.93
2019-03-25T13:54:54.195Z,21.77
2019-03-25T13:57:25.292Z,21.40
2019-03-25T14:00:03.311Z,20.62
2019-03-25T14:02:29.172Z,20.20
2019-03-25T14:05:00.434Z,19.77
2019-03-25T14:07:31.509Z,20.02
2019-03-25T14:10:02.667Z,20.27
2019-03-25T14:12:34.127Z,18.90
2019-03-25T14:15:05.371Z,19.27
2019-03-25T14:17:37.047Z,18.73
2019-03-25T14:20:08.192Z,17.95
2019-03-25T14:22:39.342Z,17.52
2019-03-25T14:25:10.443Z,17.48
2019-03-25T14:27:41.500Z,16.95
2019-03-25T14:30:14.718Z,17.67
2019-03-25T14:32:45.700Z,16.62
2019-03-25T14:35:16.727Z,18.12
2019-03-25T14:37:48.002Z,16.48
2019-03-25T14:40:19.200Z,16.20
2019-03-25T14:42:50.383Z,16.23
2019-03-25T14:45:26.367Z,15.95
2019-03-25T14:47:54.532Z,14.40
2019-03-25T14:50:26.596Z,15.00
2019-03-25T14:52:57.954Z,14.68
2019-03-25T14:55:29.015Z,14.90
2019-03-25T14:58:00.164Z,15.45
2019-03-25T15:00:31.326Z,15.10
2019-03-25T15:03:02.497Z,14.75
2019-03-25T15:05:33.563Z,13.72
2019-03-25T15:08:04.722Z,14.03
2019-03-25T15:10:36.145Z,13.38
2019-03-25T15:13:07.339Z,14.13
2019-03-25T15:15:40.987Z,13.25
2019-03-25T15:18:15.725Z,13.60
2019-03-25T15:20:44.836Z,12.68
2019-03-25T15:23:16.781Z,12.55
2019-03-25T15:25:47.631Z,13.90
2019-03-25T15:28:18.504Z,19.05
2019-03-25T15:30:49.302Z,19.77
2019-03-25T15:33:20.209Z,15.45
2019-03-25T15:35:53.336Z,13.95
2019-03-25T15:38:25.513Z,14.40
2019-03-25T15:40:56.639Z,13.45
2019-03-25T15:43:27.463Z,13.98
2019-03-25T15:45:58.354Z,12.93
2019-03-25T15:48:29.157Z,13.45
2019-03-25T15:51:00.047Z,13.78
2019-03-25T15:53:28.953Z,13.10
2019-03-25T15:56:00.766Z,13.85
2019-03-25T15:58:31.598Z,12.75
2019-03-25T16:01:02.424Z,12.65
2019-03-25T16:03:33.242Z,12.58
2019-03-25T16:06:04.395Z,12.60
2019-03-25T16:08:35.380Z,12.28
2019-03-25T16:11:06.241Z,15.45
2019-03-25T16:13:38.234Z,14.38
2019-03-25T16:16:09.156Z,15.60
2019-03-25T16:18:41.039Z,16.02
2019-03-25T16:21:11.893Z,16.35
2019-03-25T16:23:42.761Z,16.48
2019-03-25T16:26:13.631Z,16.85
2019-03-25T16:28:44.459Z,18.02
2019-03-25T16:31:15.269Z,17.87
2019-03-25T16:33:46.144Z,18.48
2019-03-25T16:36:16.964Z,18.55
2019-03-25T16:38:47.802Z,24.32
2019-03-25T16:41:18.695Z,26.55
2019-03-25T16:43:49.549Z,26.42
2019-03-25T16:46:20.616Z,20.82
2019-03-25T16:48:51.512Z,19.80
2019-03-25T16:51:22.450Z,21.65
2019-03-25T16:53:56.015Z,20.70
2019-03-25T16:56:26.780Z,20.68
2019-03-25T16:58:57.688Z,19.10
2019-03-25T17:01:28.568Z,19.62
2019-03-25T17:03:59.545Z,18.90
2019-03-25T17:06:30.879Z,19.62
2019-03-25T17:09:01.767Z,17.42
2019-03-25T17:11:33.117Z,18.65
2019-03-25T17:14:04.086Z,15.72
2019-03-25T17:16:35.008Z,7.92
2019-03-25T17:19:05.872Z,10.98
2019-03-25T17:21:36.722Z,13.53
2019-03-25T17:24:07.610Z,13.72
2019-03-25T17:26:42.613Z,14.38
2019-03-25T17:29:11.061Z,15.38
2019-03-25T17:31:41.921Z,14.30
2019-03-25T17:34:12.782Z,14.15
2019-03-25T17:36:43.982Z,13.65
2019-03-25T17:39:14.794Z,13.15
2019-03-25T17:41:46.162Z,14.03
2019-03-25T17:44:16.979Z,13.43
2019-03-25T17:46:47.797Z,14.78
2019-03-25T17:49:18.764Z,14.45
2019-03-25T17:51:49.653Z,18.62
2019-03-25T17:54:20.525Z,23.75
2019-03-25T17:56:53.463Z,35.80
2019-03-25T17:59:24.280Z,30.40
2019-03-25T18:01:55.152Z,34.03
2019-03-25T18:04:26.009Z,38.30
2019-03-25T18:06:57.067Z,35.73
2019-03-25T18:09:27.935Z,35.95
2019-03-25T18:11:58.819Z,35.98
2019-03-25T18:14:31.258Z,34.48
2019-03-25T18:17:02.150Z,38.02
2019-03-25T18:19:33.015Z,38.00
2019-03-25T18:22:03.843Z,36.00
2019-03-25T18:24:34.773Z,39.45
2019-03-25T18:27:05.669Z,38.33
2019-03-25T18:29:38.911Z,37.63
2019-03-25T18:32:09.833Z,38.30
2019-03-25T18:34:40.626Z,43.83
2019-03-25T18:37:11.469Z,40.20
2019-03-25T18:39:42.284Z,41.40
2019-03-25T18:42:13.181Z,42.65
2019-03-25T18:44:44.039Z,41.40
2019-03-25T18:47:14.971Z,43.17
2019-03-25T18:49:47.466Z,43.70
2019-03-25T18:52:18.418Z,42.50
2019-03-25T18:54:49.199Z,43.08
2019-03-25T18:57:20.058Z,43.48
2019-03-25T18:59:50.864Z,43.78
2019-03-25T19:02:21.650Z,43.78
2019-03-25T19:04:52.789Z,43.50
2019-03-25T19:07:25.698Z,43.45
2019-03-25T19:09:56.511Z,43.68
2019-03-25T19:12:27.454Z,43.75
2019-03-25T19:14:59.608Z,44.23
2019-03-25T19:17:30.251Z,43.25
2019-03-25T19:20:02.156Z,43.58
2019-03-25T19:22:33.396Z,44.67
2019-03-25T19:25:04.299Z,44.25
2019-03-25T19:27:38.111Z,45.78
2019-03-25T19:30:10.137Z,45.05
2019-03-25T19:32:43.297Z,44.18
2019-03-25T19:35:14.321Z,44.88
2019-03-25T19:37:45.141Z,52.17
2019-03-25T19:40:15.905Z,54.75
2019-03-25T19:42:46.764Z,53.95
2019-03-25T19:45:17.939Z,56.88
2019-03-25T19:47:49.041Z,57.38
2019-03-25T19:50:19.974Z,54.00
2019-03-25T19:52:50.877Z,55.25
2019-03-25T19:55:21.815Z,53.65
2019-03-25T19:57:52.748Z,56.33
2019-03-25T20:00:38.403Z,55.12
2019-03-25T20:03:10.918Z,53.25
2019-03-25T20:05:41.891Z,53.05
2019-03-25T20:08:12.762Z,52.15
2019-03-25T20:10:43.601Z,51.48
2019-03-25T20:13:14.521Z,51.00
2019-03-25T20:15:46.825Z,51.10
2019-03-25T20:18:18.054Z,49.88
2019-03-25T20:20:48.894Z,49.67
2019-03-25T20:23:19.830Z,49.48
2019-03-25T20:25:51.127Z,48.50
2019-03-25T20:28:23.191Z,48.08
2019-03-25T20:30:55.230Z,48.92
2019-03-25T20:33:26.110Z,48.05
2019-03-25T20:35:57.008Z,45.58
2019-03-25T20:38:28.211Z,46.83
2019-03-25T20:40:59.164Z,46.15
2019-03-25T20:43:30.130Z,46.23
2019-03-25T20:46:01.026Z,44.65
2019-03-25T20:48:31.946Z,44.95
2019-03-25T20:51:02.844Z,43.68
2019-03-25T20:53:33.886Z,43.23
2019-03-25T20:56:04.909Z,43.50
2019-03-25T20:58:35.899Z,43.08
2019-03-25T21:01:06.805Z,42.70
2019-03-25T21:03:37.814Z,44.42
2019-03-25T21:06:08.709Z,43.87
2019-03-25T21:08:39.669Z,43.85
2019-03-25T21:11:10.672Z,44.10
2019-03-25T21:13:42.583Z,42.55
2019-03-25T21:16:13.751Z,44.33
2019-03-25T21:18:44.789Z,44.55
2019-03-25T21:21:15.786Z,46.08
2019-03-25T21:23:46.764Z,44.53
2019-03-25T21:26:17.517Z,46.75
2019-03-25T21:28:47.352Z,45.30
2019-03-25T21:31:17.111Z,46.58
2019-03-25T21:33:48.203Z,44.75
2019-03-25T21:36:19.083Z,47.05
2019-03-25T21:38:49.855Z,48.10
2019-03-25T21:41:20.650Z,50.12
2019-03-25T21:43:51.503Z,50.35
2019-03-25T21:46:22.401Z,49.38
2019-03-25T21:48:53.352Z,50.83
2019-03-25T21:51:24.317Z,50.12
2019-03-25T21:53:55.212Z,49.50
2019-03-25T21:56:26.080Z,50.50
2019-03-25T21:58:56.960Z,49.33
2019-03-25T22:01:27.798Z,49.35
2019-03-25T22:03:58.666Z,49.67
2019-03-25T22:06:29.740Z,49.03
2019-03-25T22:09:01.647Z,48.38
2019-03-25T22:11:32.956Z,47.50
2019-03-25T22:14:03.738Z,48.30
2019-03-25T22:16:34.629Z,49.48
2019-03-25T22:19:05.498Z,47.83
2019-03-25T22:21:36.371Z,47.25
2019-03-25T22:24:09.514Z,49.30
2019-03-25T22:26:40.379Z,48.08
2019-03-25T22:29:13.571Z,46.53
2019-03-25T22:31:44.436Z,46.58
2019-03-25T22:34:15.357Z,46.48
2019-03-25T22:36:46.223Z,47.80
2019-03-25T22:39:16.995Z,46.37
2019-03-25T22:41:47.851Z,45.73
2019-03-25T22:44:18.957Z,47.23
2019-03-25T22:46:49.844Z,44.93
2019-03-25T22:49:20.767Z,45.12
2019-03-25T22:51:51.534Z,45.00
2019-03-25T22:54:22.385Z,44.33
2019-03-25T22:56:53.130Z,44.27
2019-03-25T22:59:24.014Z,44.03
2019-03-25T23:01:54.754Z,45.23
2019-03-25T23:04:25.594Z,44.35
2019-03-25T23:06:56.406Z,42.48
2019-03-25T23:09:27.211Z,42.13
2019-03-25T23:11:59.685Z,43.58
2019-03-25T23:14:31.749Z,42.55
2019-03-25T23:17:02.556Z,42.75
2019-03-25T23:19:38.506Z,43.17
2019-03-25T23:22:09.138Z,42.83
2019-03-25T23:24:39.899Z,43.42
2019-03-25T23:27:10.672Z,42.50
2019-03-25T23:29:41.538Z,44.13
2019-03-25T23:32:12.392Z,42.33
2019-03-25T23:34:43.510Z,41.20
2019-03-25T23:37:14.566Z,40.80
2019-03-25T23:39:45.429Z,41.58
2019-03-25T23:42:17.880Z,41.92
2019-03-25T23:44:48.796Z,39.63
2019-03-25T23:47:19.532Z,40.73
2019-03-25T23:49:50.392Z,39.58
2019-03-25T23:52:23.457Z,40.08
2019-03-25T23:54:54.267Z,40.38
2019-03-25T23:57:25.108Z,39.65
2019-03-25T23:59:56.182Z,39.75
